Time;durP1;ratioP1;P1;durP2;ratioP2;P2;SDS_P1;SDS_P2;PMS_P1;PMS_P2;Temp;Humidity;BMP_temperature;BMP_pressure;BME280_temperature;BME280_humidity;BME280_pressure;Samples;Min_cycle;Max_cycle;Signal;HPM_P1;HPM_P2
2022/07/06 00:01:23;;;;;;;3.28;1.30;;;22.50;60.40;;;;;;5005738;28;20049;-61
2022/07/06 00:03:48;;;;;;;3.25;1.20;;;22.50;60.40;;;;;;5008273;28;20076;-61
2022/07/06 00:06:16;;;;;;;5.35;1.20;;;22.50;60.50;;;;;;5008848;28;20037;-61
2022/07/06 00:08:42;;;;;;;4.10;1.35;;;22.60;60.50;;;;;;5008066;28;20038;-61
2022/07/06 00:11:07;;;;;;;3.78;1.23;;;22.50;60.50;;;;;;5009062;28;20029;-61
2022/07/06 00:13:33;;;;;;;5.20;1.15;;;22.50;60.60;;;;;;5003676;28;20486;-61
2022/07/06 00:15:59;;;;;;;7.10;1.63;;;22.50;60.60;;;;;;5005805;28;20028;-61
2022/07/06 00:18:24;;;;;;;3.03;1.20;;;22.50;60.70;;;;;;5008349;28;20069;-62
2022/07/06 00:20:50;;;;;;;3.08;1.27;;;22.50;60.60;;;;;;5009217;28;20030;-61
2022/07/06 00:23:16;;;;;;;3.35;1.20;;;22.50;60.60;;;;;;5009393;28;20126;-61
2022/07/06 00:25:41;;;;;;;2.05;1.10;;;22.50;60.70;;;;;;5007663;28;20041;-61
2022/07/06 00:28:07;;;;;;;3.00;1.23;;;22.40;60.70;;;;;;5008549;28;20102;-61
2022/07/06 00:30:33;;;;;;;3.58;1.33;;;22.40;60.70;;;;;;5008673;28;20081;-61
2022/07/06 00:32:58;;;;;;;2.42;1.30;;;22.50;60.80;;;;;;5008997;28;20028;-61
2022/07/06 00:35:25;;;;;;;3.45;1.30;;;22.50;60.80;;;;;;5007276;28;20509;-61
2022/07/06 00:37:50;;;;;;;2.75;1.30;;;22.50;60.80;;;;;;5007922;28;20073;-61
2022/07/06 00:40:16;;;;;;;3.47;1.10;;;22.50;60.80;;;;;;5008912;28;20060;-61
2022/07/06 00:42:43;;;;;;;2.67;1.00;;;22.40;60.70;;;;;;5009408;28;20026;-61
2022/07/06 00:45:09;;;;;;;3.55;1.40;;;22.40;60.80;;;;;;5006848;28;20030;-61
2022/07/06 00:47:35;;;;;;;4.38;1.15;;;22.40;60.80;;;;;;5008309;28;20084;-61
2022/07/06 00:50:13;;;;;;;3.58;1.23;;;22.40;60.80;;;;;;5007088;28;20449;-61
2022/07/06 00:52:43;;;;;;;2.55;1.30;;;22.40;61.00;;;;;;4991492;28;20068;-61
2022/07/06 00:55:09;;;;;;;2.60;1.20;;;22.40;61.00;;;;;;5009155;28;20022;-61
2022/07/06 00:57:35;;;;;;;2.95;1.20;;;22.40;61.00;;;;;;5009628;28;20091;-61
2022/07/06 01:00:03;;;;;;;3.67;1.20;;;22.40;61.00;;;;;;5020520;28;20097;-61
2022/07/06 01:02:31;;;;;;;3.78;1.38;;;22.40;61.00;;;;;;5008444;28;20030;-61
2022/07/06 01:04:57;;;;;;;3.17;1.30;;;22.30;61.20;;;;;;5008228;28;20108;-61
2022/07/06 01:07:23;;;;;;;4.90;1.35;;;22.40;61.10;;;;;;5007425;28;20034;-61
2022/07/06 01:09:48;;;;;;;3.55;1.25;;;22.40;61.10;;;;;;5008034;28;20516;-61
2022/07/06 01:12:14;;;;;;;2.63;1.10;;;22.30;61.00;;;;;;5010039;28;20037;-61
2022/07/06 01:14:40;;;;;;;2.47;1.08;;;22.40;61.10;;;;;;5006812;28;20021;-61
2022/07/06 01:17:05;;;;;;;2.92;1.17;;;22.30;61.10;;;;;;4989049;28;20546;-61
2022/07/06 01:19:31;;;;;;;3.13;1.20;;;22.30;61.10;;;;;;5022653;28;20026;-61
2022/07/06 01:21:56;;;;;;;3.75;1.20;;;22.30;61.10;;;;;;5006699;28;20459;-61
2022/07/06 01:24:22;;;;;;;3.15;1.20;;;22.30;61.10;;;;;;5021802;28;20021;-61
2022/07/06 01:26:48;;;;;;;3.15;1.20;;;22.30;61.20;;;;;;5006781;28;20029;-61
2022/07/06 01:29:13;;;;;;;3.42;1.50;;;22.30;62.20;;;;;;5006693;28;20019;-61
2022/07/06 01:31:47;;;;;;;2.92;1.20;;;22.30;61.20;;;;;;5006701;28;20113;-61
2022/07/06 01:34:13;;;;;;;3.63;1.40;;;22.20;61.10;;;;;;5007843;28;20125;-61
2022/07/06 01:36:39;;;;;;;4.10;1.20;;;22.20;61.10;;;;;;5002165;28;20047;-61
2022/07/06 01:39:04;;;;;;;1.95;1.00;;;22.30;61.20;;;;;;5001979;28;20490;-61
2022/07/06 01:41:30;;;;;;;4.15;1.30;;;22.30;61.20;;;;;;5006519;28;20026;-61
2022/07/06 01:43:55;;;;;;;3.35;1.10;;;22.30;62.20;;;;;;5006967;28;20026;-61
2022/07/06 01:46:21;;;;;;;3.08;1.15;;;22.30;61.30;;;;;;5007242;28;20030;-61
2022/07/06 01:48:47;;;;;;;4.78;1.30;;;22.30;61.20;;;;;;5007745;28;20049;-61
2022/07/06 01:51:12;;;;;;;3.45;1.25;;;22.20;61.10;;;;;;5006555;28;20096;-61
2022/07/06 01:53:38;;;;;;;2.08;0.98;;;22.20;61.20;;;;;;5006903;28;20037;-61
2022/07/06 01:56:04;;;;;;;2.75;1.20;;;22.20;61.20;;;;;;5005992;28;20026;-61
2022/07/06 01:58:30;;;;;;;3.33;1.20;;;22.20;61.10;;;;;;5008431;28;20129;-61
2022/07/06 02:00:56;;;;;;;4.03;1.38;;;22.20;61.20;;;;;;5007499;28;20117;-61
2022/07/06 02:03:21;;;;;;;4.32;1.20;;;22.20;61.20;;;;;;5006819;28;20065;-61
2022/07/06 02:05:47;;;;;;;1.75;1.10;;;22.20;61.20;;;;;;5004798;28;20026;-61
2022/07/06 02:08:13;;;;;;;4.57;1.40;;;22.20;61.20;;;;;;5008845;28;20033;-62
2022/07/06 02:10:38;;;;;;;4.55;1.10;;;22.20;61.20;;;;;;5006166;28;20030;-61
2022/07/06 02:13:04;;;;;;;2.42;1.10;;;22.20;61.30;;;;;;5007418;28;20418;-61
2022/07/06 02:15:29;;;;;;;2.40;1.10;;;22.20;61.30;;;;;;5006213;28;20112;-61
2022/07/06 02:17:55;;;;;;;3.00;1.05;;;22.20;61.30;;;;;;5004090;28;20142;-62
2022/07/06 02:20:21;;;;;;;2.13;1.05;;;22.20;61.30;;;;;;5006890;28;20030;-61
2022/07/06 02:22:46;;;;;;;3.83;1.35;;;22.20;61.30;;;;;;5005491;28;20022;-61
2022/07/06 02:25:12;;;;;;;2.90;1.05;;;22.20;61.30;;;;;;5004899;28;20042;-61
2022/07/06 02:27:38;;;;;;;2.45;1.20;;;22.10;61.30;;;;;;5005427;28;20032;-61
2022/07/06 02:30:05;;;;;;;3.60;1.10;;;22.20;61.30;;;;;;5005671;28;20117;-61
2022/07/06 02:32:31;;;;;;;2.45;1.15;;;22.10;61.30;;;;;;5005915;28;20391;-61
2022/07/06 02:34:57;;;;;;;2.00;1.00;;;22.10;61.30;;;;;;5005393;28;20021;-61
2022/07/06 02:37:23;;;;;;;1.77;0.90;;;22.10;61.40;;;;;;5004884;28;20042;-61
2022/07/06 02:39:48;;;;;;;2.30;1.10;;;22.10;61.40;;;;;;5006775;28;20036;-61
2022/07/06 02:42:14;;;;;;;2.05;1.00;;;22.10;61.40;;;;;;5006530;28;20501;-61
2022/07/06 02:44:40;;;;;;;2.75;1.08;;;22.10;61.30;;;;;;5004786;28;20021;-61
2022/07/06 02:47:05;;;;;;;2.58;1.02;;;22.10;61.40;;;;;;5005481;28;20502;-61
2022/07/06 02:49:31;;;;;;;1.58;0.90;;;22.10;61.30;;;;;;5006039;28;20022;-61
2022/07/06 02:51:56;;;;;;;2.47;1.08;;;22.10;61.40;;;;;;5005959;28;20034;-61
2022/07/06 02:54:22;;;;;;;2.13;1.10;;;22.10;61.40;;;;;;5006288;28;20059;-61
2022/07/06 02:56:52;;;;;;;2.58;1.13;;;22.00;61.30;;;;;;5005224;28;20038;-61
2022/07/06 02:59:18;;;;;;;1.20;0.73;;;22.10;61.30;;;;;;5005073;28;20038;-61
2022/07/06 03:01:43;;;;;;;2.80;1.00;;;22.10;61.40;;;;;;5005586;28;20075;-61
2022/07/06 03:04:09;;;;;;;2.33;1.05;;;22.10;61.40;;;;;;5005588;28;20041;-61
2022/07/06 03:06:34;;;;;;;2.88;1.20;;;22.00;61.30;;;;;;5006758;28;20057;-61
2022/07/06 03:09:00;;;;;;;1.83;0.93;;;22.10;61.40;;;;;;5006955;28;20033;-61
2022/07/06 03:11:26;;;;;;;2.67;1.10;;;22.00;61.30;;;;;;5005968;28;20023;-61
2022/07/06 03:13:51;;;;;;;2.97;1.17;;;22.00;61.40;;;;;;5006611;28;20034;-61
2022/07/06 03:16:17;;;;;;;2.72;0.95;;;22.00;61.30;;;;;;5005652;28;20018;-60
2022/07/06 03:18:43;;;;;;;3.15;1.10;;;22.00;61.40;;;;;;5005950;28;20046;-61
2022/07/06 03:21:08;;;;;;;2.38;1.30;;;22.00;61.40;;;;;;5005685;28;20096;-61
2022/07/06 03:23:34;;;;;;;1.77;0.95;;;22.00;61.40;;;;;;5004460;28;20034;-61
2022/07/06 03:26:00;;;;;;;2.13;0.80;;;22.00;61.40;;;;;;5006270;28;20041;-61
2022/07/06 03:28:26;;;;;;;2.20;1.02;;;22.00;61.40;;;;;;5004060;28;20486;-61
2022/07/06 03:30:52;;;;;;;2.28;1.00;;;22.00;61.40;;;;;;5004765;28;20121;-61
2022/07/06 03:33:17;;;;;;;1.38;0.90;;;22.00;61.40;;;;;;5005515;28;20114;-61
2022/07/06 03:35:43;;;;;;;1.95;1.10;;;22.00;61.40;;;;;;5004545;28;20034;-61
2022/07/06 03:38:09;;;;;;;2.40;0.98;;;22.00;61.40;;;;;;5005387;28;20048;-61
2022/07/06 03:40:34;;;;;;;3.50;1.20;;;21.90;61.40;;;;;;5008588;28;20026;-61
2022/07/06 03:43:00;;;;;;;1.20;0.77;;;22.00;61.40;;;;;;5009766;28;20026;-61
2022/07/06 03:45:25;;;;;;;2.38;1.00;;;21.90;61.40;;;;;;5010761;28;20030;-61
2022/07/06 03:47:51;;;;;;;2.65;1.00;;;21.90;61.40;;;;;;5010239;28;20105;-61
2022/07/06 03:50:17;;;;;;;2.88;1.00;;;22.00;61.50;;;;;;5009498;28;20081;-61
2022/07/06 03:52:42;;;;;;;1.83;1.00;;;21.90;61.50;;;;;;5010852;28;20053;-61
2022/07/06 03:55:11;;;;;;;1.52;1.00;;;21.90;61.50;;;;;;5009266;28;20034;-61
2022/07/06 03:57:39;;;;;;;2.60;1.05;;;21.90;61.50;;;;;;5009992;28;20038;-61
2022/07/06 04:00:05;;;;;;;2.70;1.00;;;21.90;61.50;;;;;;5010528;28;20634;-61
2022/07/06 04:02:31;;;;;;;2.03;1.10;;;21.90;61.50;;;;;;5009560;28;20045;-61
2022/07/06 04:04:57;;;;;;;1.83;1.00;;;21.90;61.60;;;;;;5008623;28;20034;-61
2022/07/06 04:07:22;;;;;;;1.98;1.00;;;21.90;61.60;;;;;;5009391;28;20478;-61
2022/07/06 04:09:48;;;;;;;2.05;1.08;;;21.90;61.60;;;;;;5010955;28;20026;-61
2022/07/06 04:12:14;;;;;;;2.17;0.90;;;21.90;61.50;;;;;;5008057;28;20025;-61
2022/07/06 04:14:39;;;;;;;1.75;0.90;;;21.90;61.60;;;;;;5008323;28;20030;-61
2022/07/06 04:19:49;;;;;;;2.13;1.10;;;21.90;61.60;;;;;;5008194;28;20526;-61
2022/07/06 04:22:15;;;;;;;1.52;0.80;;;21.90;61.60;;;;;;5009603;28;20042;-61
2022/07/06 04:24:41;;;;;;;2.10;0.90;;;21.90;61.60;;;;;;5009961;28;20605;-61
2022/07/06 04:27:06;;;;;;;1.80;1.00;;;21.80;61.60;;;;;;5009263;28;20022;-61
2022/07/06 04:29:32;;;;;;;1.33;0.88;;;21.80;61.70;;;;;;5008815;28;20513;-61
2022/07/06 04:31:58;;;;;;;1.52;0.95;;;21.90;61.80;;;;;;5009032;28;20495;-61
2022/07/06 04:34:23;;;;;;;1.95;0.90;;;21.90;61.70;;;;;;5006472;28;20395;-61
2022/07/06 04:36:49;;;;;;;3.22;1.10;;;21.80;61.70;;;;;;5007828;28;20718;-61
2022/07/06 04:39:14;;;;;;;2.42;0.88;;;21.90;61.60;;;;;;5008595;28;20056;-61
2022/07/06 04:41:40;;;;;;;2.13;0.90;;;21.80;61.70;;;;;;5009199;28;20026;-60
2022/07/06 04:44:06;;;;;;;2.13;1.17;;;21.80;61.70;;;;;;5009054;28;20034;-61
2022/07/06 04:46:31;;;;;;;2.90;1.00;;;21.80;61.70;;;;;;5009576;28;20030;-61
2022/07/06 04:48:57;;;;;;;1.60;0.90;;;21.80;61.70;;;;;;5007012;28;20204;-61
2022/07/06 04:51:22;;;;;;;2.80;1.00;;;21.80;61.70;;;;;;5008385;28;20069;-61
2022/07/06 04:53:48;;;;;;;3.10;0.95;;;21.80;61.80;;;;;;5008785;28;20120;-61
2022/07/06 04:56:14;;;;;;;1.67;1.00;;;21.80;61.80;;;;;;5008146;28;20080;-61
2022/07/06 04:58:40;;;;;;;2.33;0.90;;;21.80;61.80;;;;;;5007677;28;20521;-61
2022/07/06 05:01:05;;;;;;;2.20;1.00;;;21.80;61.80;;;;;;5007139;28;20216;-61
2022/07/06 05:03:31;;;;;;;2.10;0.75;;;21.80;61.80;;;;;;5008875;28;20108;-61
2022/07/06 05:05:57;;;;;;;1.73;1.05;;;21.80;61.90;;;;;;5008157;28;20173;-61
2022/07/06 05:08:22;;;;;;;1.88;0.90;;;21.80;61.80;;;;;;5007394;28;20025;-61
2022/07/06 05:10:48;;;;;;;2.38;0.88;;;21.80;61.90;;;;;;5008139;28;21032;-61
2022/07/06 05:13:14;;;;;;;1.80;0.90;;;21.80;61.90;;;;;;5007499;28;20033;-61
2022/07/06 05:15:40;;;;;;;1.45;0.90;;;21.70;61.80;;;;;;5008393;28;20025;-61
2022/07/06 05:18:05;;;;;;;2.03;1.08;;;21.80;61.90;;;;;;5009167;28;20053;-61
2022/07/06 05:20:31;;;;;;;1.52;0.90;;;21.70;61.90;;;;;;5008601;28;20100;-61
2022/07/06 05:22:56;;;;;;;1.77;1.00;;;21.80;62.00;;;;;;5008133;28;20021;-61
2022/07/06 05:25:22;;;;;;;1.38;0.90;;;21.70;61.90;;;;;;5006045;28;20042;-61
2022/07/06 05:27:48;;;;;;;2.22;1.10;;;21.70;61.90;;;;;;5006761;28;20029;-61
2022/07/06 05:30:15;;;;;;;2.47;1.00;;;21.70;61.90;;;;;;5006718;28;20483;-61
2022/07/06 05:32:41;;;;;;;1.80;0.90;;;21.70;61.90;;;;;;5009118;28;20030;-61
2022/07/06 05:35:07;;;;;;;1.40;0.80;;;21.70;61.90;;;;;;5004156;28;20471;-61
2022/07/06 05:37:33;;;;;;;2.17;0.90;;;21.70;61.90;;;;;;5005447;28;20607;-61
2022/07/06 05:39:59;;;;;;;3.63;1.10;;;21.70;61.90;;;;;;5005582;28;20038;-61
2022/07/06 05:42:24;;;;;;;1.58;1.02;;;21.70;61.90;;;;;;5003432;28;20029;-61
2022/07/06 05:44:50;;;;;;;1.75;0.70;;;21.70;61.90;;;;;;5005105;28;20108;-61
2022/07/06 05:50:12;;;;;;;2.15;0.90;;;21.70;61.90;;;;;;5003816;28;22437;-61
2022/07/06 05:52:38;;;;;;;2.85;0.90;;;21.70;61.90;;;;;;5005900;28;20565;-61
2022/07/06 05:55:04;;;;;;;3.63;1.25;;;21.70;62.00;;;;;;5006015;28;20036;-61
2022/07/06 05:57:30;;;;;;;3.13;0.90;;;21.70;61.90;;;;;;5005444;28;20087;-61
2022/07/06 05:59:56;;;;;;;1.75;0.90;;;21.70;61.90;;;;;;5005138;28;20104;-61
2022/07/06 06:02:22;;;;;;;1.25;0.90;;;21.70;62.00;;;;;;5005274;28;20514;-61
2022/07/06 06:04:49;;;;;;;1.20;0.80;;;21.70;62.00;;;;;;5007010;28;20478;-61
2022/07/06 06:07:14;;;;;;;0.95;0.80;;;21.60;62.00;;;;;;5007844;28;20385;-61
2022/07/06 06:09:40;;;;;;;1.50;0.98;;;21.60;62.00;;;;;;5007501;28;20026;-61
2022/07/06 06:12:06;;;;;;;2.45;1.00;;;21.60;62.00;;;;;;5004750;28;20029;-61
2022/07/06 06:14:32;;;;;;;1.35;1.00;;;21.60;62.00;;;;;;5005957;28;20026;-60
2022/07/06 06:16:58;;;;;;;1.08;0.90;;;21.60;62.00;;;;;;5006527;28;20530;-61
2022/07/06 06:19:24;;;;;;;0.98;0.88;;;21.60;62.00;;;;;;5006511;28;20034;-61
2022/07/06 06:21:51;;;;;;;1.67;1.02;;;21.60;62.00;;;;;;5005748;28;20037;-62
2022/07/06 06:24:39;;;;;;;1.98;1.08;;;21.60;62.00;;;;;;5003863;28;20062;-61
2022/07/06 06:27:05;;;;;;;1.08;0.80;;;21.60;62.00;;;;;;5001823;28;20092;-61
2022/07/06 06:29:30;;;;;;;1.60;1.00;;;21.60;62.10;;;;;;5007492;28;20490;-61
2022/07/06 06:31:56;;;;;;;1.70;0.90;;;21.60;62.10;;;;;;5004222;28;20030;-61
2022/07/06 06:34:22;;;;;;;1.45;0.95;;;21.60;62.00;;;;;;5006397;28;20030;-61
2022/07/06 06:36:48;;;;;;;1.35;0.80;;;21.60;62.10;;;;;;5003839;28;20038;-61
2022/07/06 06:39:13;;;;;;;2.75;1.00;;;21.60;62.10;;;;;;5001700;28;20443;-61
2022/07/06 06:41:39;;;;;;;1.80;0.80;;;21.60;62.10;;;;;;5005570;28;20137;-61
2022/07/06 06:44:05;;;;;;;1.90;0.90;;;21.60;62.20;;;;;;5005293;28;20034;-61
2022/07/06 06:46:30;;;;;;;1.17;0.90;;;21.60;62.10;;;;;;5004396;28;20139;-61
2022/07/06 06:48:56;;;;;;;1.98;1.00;;;21.60;62.10;;;;;;5005351;28;20030;-61
2022/07/06 06:51:21;;;;;;;1.13;0.70;;;21.60;62.10;;;;;;5005385;28;20034;-61
2022/07/06 06:53:47;;;;;;;1.95;1.00;;;21.60;62.10;;;;;;5006255;28;20026;-61
2022/07/06 06:56:13;;;;;;;1.40;0.75;;;21.60;62.10;;;;;;5002026;28;20026;-61
2022/07/06 06:58:38;;;;;;;1.10;0.80;;;21.60;62.20;;;;;;5004506;28;20041;-61
2022/07/06 07:01:05;;;;;;;1.23;0.90;;;21.60;62.10;;;;;;5005135;28;20038;-60
2022/07/06 07:03:32;;;;;;;1.48;1.00;;;21.50;62.20;;;;;;5003503;28;20050;-61
2022/07/06 07:05:58;;;;;;;1.02;0.93;;;21.50;62.20;;;;;;5005929;28;20030;-61
2022/07/06 07:08:23;;;;;;;1.45;0.90;;;21.50;62.20;;;;;;5003868;28;20391;-61
2022/07/06 07:10:49;;;;;;;1.40;1.00;;;21.50;62.20;;;;;;5003903;28;20036;-61
2022/07/06 07:13:15;;;;;;;1.02;0.80;;;21.50;62.20;;;;;;5001508;28;20105;-60
2022/07/06 07:15:40;;;;;;;1.85;0.90;;;21.60;62.30;;;;;;5002735;28;20549;-61
2022/07/06 07:18:06;;;;;;;1.20;0.80;;;21.60;62.30;;;;;;5001550;28;20112;-61
2022/07/06 07:20:33;;;;;;;1.30;0.93;;;21.50;62.20;;;;;;5002633;28;20022;-61
2022/07/06 07:22:59;;;;;;;2.15;1.13;;;21.50;63.30;;;;;;5004378;28;20065;-61
2022/07/06 07:25:25;;;;;;;2.03;0.90;;;21.50;62.20;;;;;;5001713;28;20533;-62
2022/07/06 07:27:51;;;;;;;2.05;1.05;;;21.60;62.30;;;;;;5003488;28;20108;-62
2022/07/06 07:30:16;;;;;;;1.63;0.80;;;21.60;62.30;;;;;;5000973;28;20033;-62
2022/07/06 07:32:42;;;;;;;2.13;0.90;;;21.60;62.20;;;;;;5003975;28;20041;-63
2022/07/06 07:35:08;;;;;;;1.02;0.70;;;21.60;62.30;;;;;;5005316;28;20064;-63
2022/07/06 07:37:34;;;;;;;2.78;1.10;;;21.70;62.30;;;;;;5005766;28;20045;-62
2022/07/06 07:40:00;;;;;;;1.42;0.90;;;21.70;62.20;;;;;;5005503;28;20073;-63
2022/07/06 07:42:25;;;;;;;2.50;0.77;;;21.70;62.10;;;;;;5001914;28;20029;-62
2022/07/06 07:44:51;;;;;;;7.75;1.80;;;21.70;62.00;;;;;;5005661;28;20410;-62
2022/07/06 07:47:17;;;;;;;3.78;1.73;;;21.70;63.10;;;;;;5001237;28;20060;-62
2022/07/06 07:49:42;;;;;;;6.38;1.80;;;21.70;64.30;;;;;;5001812;28;20072;-63
2022/07/06 07:52:08;;;;;;;7.30;2.10;;;21.70;64.30;;;;;;5004080;28;20116;-63
2022/07/06 07:54:34;;;;;;;6.45;1.90;;;21.70;64.90;;;;;;5004752;28;20049;-63
2022/07/06 07:57:00;;;;;;;7.53;2.25;;;21.80;65.10;;;;;;5002995;28;20034;-63
2022/07/06 07:59:25;;;;;;;8.80;2.22;;;21.70;65.40;;;;;;5001975;28;20022;-62
2022/07/06 08:01:51;;;;;;;7.50;2.13;;;21.80;65.60;;;;;;5005716;28;20095;-62
2022/07/06 08:04:17;;;;;;;8.65;2.33;;;21.80;65.70;;;;;;5004043;28;20041;-63
2022/07/06 08:06:49;;;;;;;7.45;2.10;;;21.80;65.40;;;;;;5000341;28;20036;-62
2022/07/06 08:09:16;;;;;;;8.40;2.25;;;21.80;65.80;;;;;;5001992;28;20037;-62
2022/07/06 08:11:42;;;;;;;4.72;1.70;;;21.80;65.40;;;;;;5003227;28;20462;-62
2022/07/06 08:14:08;;;;;;;11.23;2.30;;;21.80;65.40;;;;;;5001661;28;20054;-63
2022/07/06 08:16:34;;;;;;;10.05;2.42;;;21.80;65.50;;;;;;5002559;28;20465;-62
2022/07/06 08:19:00;;;;;;;8.15;2.10;;;21.80;65.20;;;;;;5003104;28;20118;-62
2022/07/06 08:21:26;;;;;;;7.72;2.40;;;21.90;65.00;;;;;;5002813;28;20132;-62
2022/07/06 08:23:52;;;;;;;7.97;2.38;;;21.90;65.40;;;;;;5006039;28;20491;-62
2022/07/06 08:26:17;;;;;;;8.75;2.13;;;21.90;65.70;;;;;;5007500;28;20054;-62
2022/07/06 08:28:43;;;;;;;11.75;2.60;;;21.90;65.90;;;;;;5006056;28;20546;-62
2022/07/06 08:31:08;;;;;;;11.25;2.53;;;21.90;65.70;;;;;;5004763;28;20026;-63
2022/07/06 08:33:34;;;;;;;8.10;2.50;;;21.90;66.00;;;;;;5004620;28;20080;-63
2022/07/06 08:36:00;;;;;;;9.30;2.00;;;21.90;66.40;;;;;;5004173;28;20073;-63
2022/07/06 08:38:26;;;;;;;8.90;2.47;;;21.90;66.30;;;;;;5007417;28;20061;-62
2022/07/06 08:40:51;;;;;;;9.52;2.70;;;21.90;66.00;;;;;;5007171;28;20030;-62
2022/07/06 08:43:17;;;;;;;9.55;2.47;;;21.80;66.40;;;;;;5019502;28;20038;-63
2022/07/06 08:45:44;;;;;;;10.10;2.72;;;21.80;66.60;;;;;;5007932;28;20034;-63
2022/07/06 08:48:09;;;;;;;9.40;2.65;;;21.80;66.90;;;;;;5005722;28;20517;-63
2022/07/06 08:50:35;;;;;;;8.98;2.67;;;21.80;66.60;;;;;;5004841;28;20034;-63
2022/07/06 08:53:01;;;;;;;7.70;2.70;;;21.80;66.70;;;;;;5009050;28;20105;-62
2022/07/06 08:55:27;;;;;;;9.60;2.50;;;21.80;66.80;;;;;;5006480;28;20513;-62
2022/07/06 08:57:52;;;;;;;6.70;2.65;;;21.80;67.10;;;;;;5005349;28;20045;-63
2022/07/06 09:00:18;;;;;;;8.63;2.70;;;21.80;66.90;;;;;;5007279;28;20053;-63
2022/07/06 09:02:44;;;;;;;8.13;2.45;;;21.80;66.90;;;;;;5008475;28;20026;-62
2022/07/06 09:05:11;;;;;;;9.15;2.60;;;21.80;67.30;;;;;;5020994;28;20026;-62
2022/07/06 09:07:36;;;;;;;10.35;3.40;;;21.80;66.90;;;;;;5020942;28;20037;-63
2022/07/06 09:10:02;;;;;;;8.85;2.70;;;21.80;66.80;;;;;;5016623;28;20025;-62
2022/07/06 09:12:29;;;;;;;10.23;3.42;;;21.80;66.80;;;;;;5007352;28;20079;-62
2022/07/06 09:14:56;;;;;;;11.23;3.30;;;21.70;66.70;;;;;;5005718;28;20482;-63
2022/07/06 09:17:25;;;;;;;9.93;3.53;;;21.80;66.50;;;;;;5007088;28;20525;-62
2022/07/06 09:19:50;;;;;;;9.07;3.22;;;21.80;66.60;;;;;;5020112;28;20022;-63
2022/07/06 09:22:31;;;;;;;9.00;3.30;;;21.80;67.00;;;;;;5004232;28;20085;-62
2022/07/06 09:25:07;;;;;;;10.27;3.30;;;21.80;66.70;;;;;;5004285;28;20018;-63
2022/07/06 09:27:41;;;;;;;7.15;2.83;;;21.80;66.80;;;;;;5005689;28;20117;-62
2022/07/06 09:30:08;;;;;;;8.32;2.78;;;21.80;66.60;;;;;;5006261;28;20639;-62
2022/07/06 09:32:45;;;;;;;12.32;3.15;;;21.80;66.30;;;;;;5002669;28;20526;-62
2022/07/06 09:35:30;;;;;;;9.05;3.03;;;21.80;66.20;;;;;;5003284;28;20084;-62
2022/07/06 09:38:00;;;;;;;5.15;2.35;;;21.80;66.30;;;;;;5000438;28;20044;-62
2022/07/06 09:40:26;;;;;;;11.13;3.38;;;21.80;65.90;;;;;;5005469;28;20073;-62
2022/07/06 09:43:06;;;;;;;7.78;3.13;;;21.80;66.40;;;;;;5002345;28;20122;-62
2022/07/06 09:45:36;;;;;;;8.60;3.30;;;21.80;65.90;;;;;;5005655;28;20494;-63
2022/07/06 09:48:21;;;;;;;9.75;4.03;;;21.90;65.90;;;;;;5002867;28;20034;-62
2022/07/06 09:50:57;;;;;;;10.27;3.30;;;21.90;65.60;;;;;;5003015;28;20032;-62
2022/07/06 09:53:24;;;;;;;10.55;4.15;;;21.90;65.70;;;;;;5004735;28;20026;-63
2022/07/06 09:55:54;;;;;;;10.93;3.85;;;22.00;65.90;;;;;;5005208;28;20545;-62
2022/07/06 09:58:20;;;;;;;11.63;3.72;;;22.00;66.00;;;;;;5002491;28;20041;-62
2022/07/06 10:00:47;;;;;;;11.10;5.03;;;22.00;66.20;;;;;;5004627;28;20018;-63
2022/07/06 10:03:15;;;;;;;19.00;8.75;;;22.10;66.60;;;;;;5001757;28;20461;-63
2022/07/06 10:05:41;;;;;;;15.70;7.03;;;22.10;67.10;;;;;;5004575;28;20709;-61
2022/07/06 10:08:09;;;;;;;7.03;2.95;;;22.10;67.20;;;;;;5003270;28;20048;-63
2022/07/06 10:10:35;;;;;;;14.15;5.55;;;22.10;65.80;;;;;;5003139;28;20038;-63
2022/07/06 10:13:02;;;;;;;13.13;5.55;;;22.10;66.00;;;;;;5001627;28;20672;-63
2022/07/06 10:15:31;;;;;;;9.82;4.03;;;22.20;67.00;;;;;;5004307;28;20030;-62
2022/07/06 10:17:57;;;;;;;13.15;3.75;;;22.10;65.70;;;;;;5002555;28;20081;-63
2022/07/06 10:20:23;;;;;;;10.90;3.05;;;22.20;65.20;;;;;;5005771;28;20049;-63
2022/07/06 10:22:49;;;;;;;10.57;4.00;;;22.20;65.40;;;;;;5002846;28;20737;-62
2022/07/06 10:25:18;;;;;;;8.70;3.28;;;22.20;66.10;;;;;;4999729;28;20521;-62
2022/07/06 10:27:45;;;;;;;9.30;3.00;;;22.20;65.30;;;;;;5001324;28;20034;-62
2022/07/06 10:30:11;;;;;;;10.48;3.30;;;22.20;65.50;;;;;;4999627;28;20026;-62
2022/07/06 10:32:38;;;;;;;11.35;2.83;;;22.30;65.50;;;;;;5002781;28;20650;-62
2022/07/06 10:35:04;;;;;;;7.50;3.03;;;22.30;65.00;;;;;;5016624;28;20030;-61
2022/07/06 10:37:30;;;;;;;11.80;2.90;;;22.30;65.10;;;;;;5005071;28;20034;-62
2022/07/06 10:42:44;;;;;;;8.10;2.90;;;22.20;64.60;;;;;;5019036;28;20164;-62
2022/07/06 10:45:14;;;;;;;7.45;3.00;;;22.30;64.80;;;;;;4999442;28;20044;-62
2022/07/06 10:47:41;;;;;;;9.25;3.05;;;22.40;65.10;;;;;;5003728;28;20049;-62
2022/07/06 10:50:07;;;;;;;6.55;2.53;;;22.30;64.80;;;;;;5006879;28;20037;-62
2022/07/06 10:52:51;;;;;;;9.02;2.72;;;22.40;64.90;;;;;;5004183;28;20033;-62
2022/07/06 10:55:34;;;;;;;6.72;2.70;;;22.40;64.50;;;;;;5006181;28;20041;-62
2022/07/06 10:58:00;;;;;;;9.32;2.60;;;22.40;64.30;;;;;;5005141;28;20049;-62
2022/07/06 11:00:26;;;;;;;9.00;2.70;;;22.50;64.40;;;;;;5006009;28;20040;-63
2022/07/06 11:02:52;;;;;;;8.00;2.72;;;22.50;64.20;;;;;;5006763;28;20034;-62
2022/07/06 11:05:40;;;;;;;7.07;2.70;;;22.50;64.30;;;;;;5007397;28;20566;-63
2022/07/06 11:08:08;;;;;;;8.30;2.58;;;22.50;64.10;;;;;;5005768;28;20022;-62
2022/07/06 11:10:47;;;;;;;6.32;2.30;;;22.50;63.90;;;;;;5004329;28;20418;-62
2022/07/06 11:13:28;;;;;;;6.47;2.47;;;22.50;63.90;;;;;;5006284;28;20554;-63
2022/07/06 11:16:03;;;;;;;7.22;2.33;;;22.60;63.90;;;;;;5007029;28;20052;-62
2022/07/06 11:18:39;;;;;;;5.82;2.50;;;22.60;63.80;;;;;;5005492;28;20046;-62
2022/07/06 11:21:18;;;;;;;6.22;2.55;;;22.60;63.90;;;;;;5004849;28;20037;-63
2022/07/06 11:23:45;;;;;;;7.95;2.47;;;22.60;63.80;;;;;;5006453;28;20065;-62
2022/07/06 11:26:10;;;;;;;6.53;2.50;;;22.60;63.70;;;;;;5001826;28;20046;-62
2022/07/06 11:28:37;;;;;;;5.30;2.30;;;22.60;63.60;;;;;;5004759;28;20042;-62
2022/07/06 11:31:03;;;;;;;5.72;2.50;;;22.70;63.40;;;;;;5004922;28;20038;-62
2022/07/06 11:33:31;;;;;;;10.20;2.70;;;22.70;63.50;;;;;;5004018;28;20038;-63
2022/07/06 11:36:12;;;;;;;5.97;2.60;;;22.70;63.40;;;;;;5004947;28;20030;-62
2022/07/06 11:38:38;;;;;;;6.97;2.35;;;22.70;63.40;;;;;;5006236;28;20418;-62
2022/07/06 11:41:04;;;;;;;7.70;2.67;;;22.70;63.30;;;;;;5005233;28;20022;-63
2022/07/06 11:43:30;;;;;;;6.70;2.33;;;22.70;63.30;;;;;;5005492;28;20116;-62
2022/07/06 11:45:55;;;;;;;4.40;2.10;;;22.80;63.30;;;;;;5002682;28;20328;-63
2022/07/06 11:48:21;;;;;;;5.53;2.33;;;22.80;63.00;;;;;;5006208;28;20034;-62
2022/07/06 11:51:03;;;;;;;6.03;2.50;;;22.80;63.20;;;;;;5005830;28;20433;-63
2022/07/06 11:53:29;;;;;;;6.40;2.22;;;22.80;63.00;;;;;;5003647;28;20209;-63
2022/07/06 11:55:54;;;;;;;4.50;2.20;;;22.80;63.00;;;;;;5003878;28;20062;-63
2022/07/06 11:58:24;;;;;;;7.28;2.30;;;22.80;63.00;;;;;;5004599;28;20034;-62
2022/07/06 12:01:16;;;;;;;5.03;2.15;;;22.90;63.00;;;;;;5008272;28;20042;-63
2022/07/06 12:03:44;;;;;;;5.38;2.20;;;22.90;63.00;;;;;;5003830;28;20533;-62
2022/07/06 12:06:16;;;;;;;5.80;2.50;;;22.90;63.00;;;;;;5008392;28;20026;-62
2022/07/06 12:08:52;;;;;;;6.00;2.40;;;22.90;63.00;;;;;;5007932;28;20055;-63
2022/07/06 12:11:36;;;;;;;7.75;2.38;;;22.90;63.10;;;;;;5010401;28;20041;-63
2022/07/06 12:14:16;;;;;;;6.13;2.60;;;22.90;63.00;;;;;;5007066;28;20034;-62
2022/07/06 12:16:42;;;;;;;5.93;2.30;;;23.00;63.00;;;;;;5008025;28;20044;-63
2022/07/06 12:19:08;;;;;;;6.50;2.30;;;23.00;63.00;;;;;;5008692;28;20029;-63
2022/07/06 12:21:34;;;;;;;4.55;2.20;;;23.00;62.90;;;;;;5008386;28;20112;-62
2022/07/06 12:24:00;;;;;;;4.95;2.30;;;23.00;62.80;;;;;;5007990;28;20514;-63
2022/07/06 12:26:29;;;;;;;5.30;2.05;;;23.00;62.80;;;;;;5008438;28;20061;-62
2022/07/06 12:29:07;;;;;;;6.88;2.35;;;23.00;62.70;;;;;;5007546;28;20029;-63
2022/07/06 12:31:37;;;;;;;5.75;2.65;;;23.00;62.70;;;;;;5008806;28;20026;-63
2022/07/06 12:34:12;;;;;;;4.85;2.28;;;23.10;62.70;;;;;;5008579;28;20380;-63
2022/07/06 12:37:07;;;;;;;4.82;2.20;;;23.10;62.60;;;;;;5008796;28;20026;-63
2022/07/06 12:39:43;;;;;;;4.80;2.45;;;23.10;62.50;;;;;;5004547;28;20050;-63
2022/07/06 12:42:08;;;;;;;4.45;2.10;;;23.10;62.50;;;;;;5005912;28;20034;-64
2022/07/06 12:44:45;;;;;;;6.15;2.40;;;23.10;62.40;;;;;;5008242;28;20032;-62
2022/07/06 12:47:11;;;;;;;5.75;2.30;;;23.10;62.40;;;;;;5006511;28;20026;-62
2022/07/06 12:49:37;;;;;;;5.43;2.20;;;23.20;62.30;;;;;;5009034;28;20045;-62
2022/07/06 12:52:13;;;;;;;3.72;1.92;;;23.20;62.30;;;;;;5007378;28;20022;-62
2022/07/06 12:54:49;;;;;;;5.55;2.30;;;23.20;62.20;;;;;;5008711;28;20131;-62